Wetterstation:     Jahr:     Auswahl:
Download: tageswerte-steinberg-2021.csv
 
 
Datum
Temp. 2 m
Mittel
[⁰C]
Temp. 2 m
Maximum
[⁰C]
Temp. 2 m
Minimum
[⁰C]
rel. Feuchte
Mittel
[%]
Wind
Mittel
[m/s]
Regen
Summe
[mm]
Strahlung
Summe
[Wh/m²]
Bogrebe
Minimum
[⁰C]
01.01.2021 1,9 3,4 0,4 93,6 0,5 1,4 558,2 ---
02.01.2021 1,9 3,3 0,7 83,7 0,8 0,1 496,0 ---
03.01.2021 1,7 2,8 0,8 85,6 1,4 0,3 297,1 ---
04.01.2021 1,4 2,2 0,0 91,2 0,8 1,6 183,0 ---
05.01.2021 2,2 2,8 1,5 87,5 1,7 0,2 257,9 ---
06.01.2021 2,5 4,0 1,0 86,0 1,2 1,2 498,1 ---
07.01.2021 1,2 2,7 0,2 87,8 1,1 0,4 443,8 ---
08.01.2021 1,4 3,4 0,1 89,0 1,3 0,5 728,3 ---
09.01.2021 1,0 4,2 -1,5 79,7 1,3 0,1 941,2 ---
10.01.2021 -0,7 4,4 -3,6 82,8 0,7 0,0 1703,0 ---
11.01.2021 -1,6 3,5 -6,1 82,5 0,6 0,0 1641,2 ---
12.01.2021 2,1 4,0 0,5 91,2 1,5 7,9 319,2 ---
13.01.2021 1,6 4,9 -1,1 83,9 1,2 0,1 1008,5 ---
14.01.2021 1,4 3,2 -0,2 78,3 0,8 0,4 592,0 ---
15.01.2021 0,8 2,6 -0,3 72,7 1,8 0,0 1096,8 ---
16.01.2021 -0,8 0,4 -3,0 74,5 1,0 0,0 580,8 ---
17.01.2021 -1,2 0,6 -3,0 95,3 0,2 2,0 255,8 ---
18.01.2021 2,5 4,5 0,4 90,3 1,1 3,1 698,2 ---
19.01.2021 2,8 4,4 0,1 87,0 2,1 0,8 183,5 ---
20.01.2021 3,3 6,1 0,4 81,3 1,1 0,0 715,8 ---
21.01.2021 7,9 11,0 4,3 78,2 2,3 5,2 847,9 ---
22.01.2021 5,5 10,5 2,5 89,7 1,7 5,6 622,8 ---
23.01.2021 2,9 4,9 1,2 93,5 0,7 3,5 334,3 ---
24.01.2021 1,1 3,6 -0,8 90,5 1,7 6,8 772,3 ---
25.01.2021 0,4 2,3 -1,0 91,2 0,5 2,5 644,1 ---
26.01.2021 1,8 4,2 -0,7 83,2 1,8 0,0 608,8 ---
27.01.2021 0,5 1,6 -0,6 96,1 0,5 5,0 255,3 ---
28.01.2021 5,4 11,8 1,4 93,9 1,3 15,1 439,1 ---
29.01.2021 8,6 11,7 6,5 84,7 2,2 6,7 1109,6 ---
30.01.2021 3,6 7,8 0,3 92,1 1,4 8,0 346,0 ---
31.01.2021 0,4 1,0 -0,1 88,3 1,3 2,0 492,6 ---
01.02.2021 2,6 4,1 0,9 97,2 0,8 5,0 456,6 ---
02.02.2021 5,9 8,3 4,2 96,2 0,6 4,4 491,2 ---
03.02.2021 9,0 12,8 6,9 95,7 1,3 20,0 530,4 ---
04.02.2021 7,4 11,1 3,5 80,1 1,4 0,1 2115,8 ---
05.02.2021 6,0 6,8 4,4 93,1 0,6 6,4 471,3 ---
06.02.2021 5,3 6,5 3,3 95,0 1,5 12,6 157,1 ---
07.02.2021 2,3 3,4 -0,3 95,3 1,2 6,5 219,7 ---
08.02.2021 -3,3 -0,4 -5,1 86,3 0,0 0,0 610,6 ---
09.02.2021 -6,5 -4,8 -9,4 73,3 0,0 0,0 1118,5 ---
10.02.2021 -7,0 -3,2 -10,1 70,7 0,0 0,0 2356,8 ---
11.02.2021 -3,2 0,6 -5,9 74,2 0,6 0,3 2305,4 ---
12.02.2021 -4,3 -0,6 -6,8 66,0 1,8 0,0 2666,9 ---
13.02.2021 -4,1 1,0 -7,5 62,6 1,7 0,0 2894,7 ---
14.02.2021 -2,0 3,9 -6,2 61,4 1,6 0,0 2822,8 ---
15.02.2021 -1,3 0,1 -3,9 71,6 0,8 0,5 662,7 ---
16.02.2021 4,0 8,8 0,0 89,5 0,7 3,4 1790,4 ---
17.02.2021 6,9 12,3 3,5 86,8 1,2 0,1 1440,8 ---
18.02.2021 5,0 8,6 -0,2 87,8 0,9 0,2 1327,9 ---
19.02.2021 6,0 12,0 1,6 85,6 0,9 0,0 2262,7 ---
20.02.2021 9,1 16,0 4,1 82,5 1,1 0,0 2815,1 ---
21.02.2021 9,8 18,5 2,1 73,5 0,9 0,1 3180,7 ---
22.02.2021 7,9 12,5 3,0 77,9 1,1 0,0 2256,9 ---
23.02.2021 11,1 19,2 5,3 76,9 0,6 0,0 2898,7 ---
24.02.2021 11,7 19,0 5,8 80,3 0,7 0,0 2945,8 ---
25.02.2021 11,3 20,2 4,9 68,7 0,6 0,0 3243,2 ---
26.02.2021 6,6 9,4 3,6 83,8 1,6 0,7 484,9 ---
27.02.2021 5,9 11,0 1,8 73,6 1,6 0,1 2967,6 ---
28.02.2021 6,3 11,7 1,8 67,2 1,5 0,0 3667,9 ---
01.03.2021 7,3 13,8 0,5 66,7 1,1 0,0 3731,4 ---
02.03.2021 8,8 15,2 4,6 65,3 0,9 0,0 3732,3 ---
03.03.2021 7,5 14,9 1,5 76,2 0,5 0,0 2957,1 ---
04.03.2021 8,0 14,1 3,8 78,2 1,6 0,0 2032,4 ---
05.03.2021 3,7 6,6 0,8 67,4 2,0 0,0 1832,2 ---
06.03.2021 2,8 8,3 -1,6 54,7 1,6 0,0 4132,8 ---
07.03.2021 3,3 10,3 -3,3 54,3 1,3 0,0 4182,8 ---
08.03.2021 2,9 7,8 -2,6 70,1 0,9 0,0 2791,3 ---
09.03.2021 3,5 7,0 0,0 83,5 1,0 0,0 1810,1 ---
10.03.2021 6,3 9,9 1,8 77,8 1,1 0,0 1653,7 ---
11.03.2021 8,8 15,4 5,7 79,0 3,1 4,0 2022,9 ---
12.03.2021 6,9 10,1 3,9 71,1 3,7 3,6 2506,5 ---
13.03.2021 6,1 9,2 3,8 84,3 3,1 4,5 1513,0 ---
14.03.2021 4,4 8,3 2,1 81,5 1,8 4,8 1841,9 ---
15.03.2021 5,2 9,4 2,1 82,6 2,8 7,2 3358,8 ---
16.03.2021 5,5 7,9 3,1 76,4 1,7 0,8 2276,7 ---
17.03.2021 4,2 7,6 0,2 75,9 1,5 2,2 1914,8 ---
18.03.2021 3,4 7,6 -0,7 71,7 1,2 1,7 4097,8 ---
19.03.2021 3,0 6,5 1,0 74,9 1,9 0,7 3110,0 ---
20.03.2021 3,7 7,5 -0,1 56,7 1,3 0,0 4270,5 ---
21.03.2021 5,7 9,0 3,2 68,9 2,1 0,1 2704,0 ---
22.03.2021 5,4 7,3 3,3 73,4 1,4 0,0 1459,1 ---
23.03.2021 6,2 9,9 3,3 70,2 1,4 0,0 2018,5 ---
24.03.2021 7,3 15,7 -0,2 73,3 0,8 0,0 5039,9 ---
25.03.2021 9,2 16,5 2,9 70,8 1,0 0,0 4211,6 ---
26.03.2021 10,9 16,2 5,3 68,8 1,2 0,0 4719,0 ---
27.03.2021 6,8 9,8 3,2 73,0 2,8 1,3 3113,6 ---
28.03.2021 9,2 15,4 3,2 66,8 1,6 0,1 4509,6 ---
29.03.2021 13,0 22,3 5,2 52,4 1,2 0,0 5388,1 ---
30.03.2021 13,9 23,1 5,0 50,9 0,7 0,0 5541,5 ---
31.03.2021 15,3 25,0 5,8 53,7 0,6 0,0 5401,4 ---
01.04.2021 15,6 23,8 8,4 57,4 1,8 0,0 4833,2 ---
02.04.2021 8,3 13,8 4,8 61,8 2,1 0,0 4076,5 ---
03.04.2021 8,1 13,0 4,0 53,1 1,8 0,0 4915,1 ---
04.04.2021 6,9 11,2 2,7 63,5 1,9 0,0 5317,8 ---
05.04.2021 3,3 7,0 0,4 75,4 2,8 2,1 1787,7 ---
06.04.2021 2,5 6,3 -0,2 66,8 4,1 0,5 4390,7 ---
07.04.2021 2,1 4,4 0,1 72,2 3,0 0,8 2483,2 ---
08.04.2021 4,2 9,3 -0,4 59,8 1,8 0,0 4259,8 ---
09.04.2021 8,7 16,4 -0,4 55,7 1,2 0,2 5195,8 ---
10.04.2021 9,1 10,4 8,1 89,7 1,1 5,1 778,1 ---
11.04.2021 7,4 13,1 3,7 87,7 2,4 3,1 1760,3 ---
12.04.2021 4,2 8,3 0,9 75,6 1,4 0,6 4312,8 ---
13.04.2021 4,3 9,6 -0,4 66,1 1,6 0,0 4237,7 ---
14.04.2021 4,7 9,2 0,4 62,8 1,5 0,0 4185,6 ---
15.04.2021 5,1 10,2 -0,4 63,4 1,4 0,1 4205,1 ---
16.04.2021 5,8 8,8 2,4 62,8 1,5 0,0 2965,0 ---
17.04.2021 7,8 11,7 3,4 57,7 1,6 0,0 4474,4 ---
18.04.2021 8,3 11,3 7,1 76,4 0,7 3,5 1450,0 ---
19.04.2021 9,7 14,1 5,4 78,5 0,8 0,5 2860,1 ---
20.04.2021 10,8 17,8 3,9 68,9 1,0 0,0 6476,6 ---
21.04.2021 12,0 18,5 4,8 63,9 1,2 0,1 4537,0 ---
22.04.2021 9,5 14,7 4,2 54,3 1,8 0,0 6795,3 ---
23.04.2021 10,2 17,1 2,8 52,5 1,6 0,0 7128,0 ---
24.04.2021 11,2 17,3 3,9 54,5 1,4 0,0 6893,5 ---
25.04.2021 10,2 15,6 5,4 49,4 2,1 0,0 7289,1 ---
26.04.2021 9,9 15,6 4,6 41,4 2,0 0,0 7420,0 ---
27.04.2021 11,1 17,3 5,1 39,2 1,8 0,0 7269,2 ---
28.04.2021 12,3 20,6 4,5 58,5 1,1 8,3 6206,6 ---
29.04.2021 10,6 16,2 4,2 74,4 2,7 4,1 4637,6 ---
30.04.2021 7,3 11,4 2,0 73,8 0,8 0,0 3393,8 ---
01.05.2021 9,5 14,0 3,2 63,2 1,4 0,0 3642,4 ---
02.05.2021 8,7 12,1 4,4 56,5 2,7 0,0 4623,4 ---
03.05.2021 8,5 14,2 1,4 60,8 1,6 0,0 5370,6 ---
04.05.2021 9,3 12,9 5,9 70,1 3,0 0,1 1584,4 ---
05.05.2021 6,8 11,4 3,3 75,0 2,5 1,9 4215,2 ---
06.05.2021 6,3 10,7 2,8 85,9 1,2 3,9 2450,8 ---
07.05.2021 7,5 12,0 3,9 70,1 2,1 1,1 6442,1 ---
08.05.2021 10,4 17,4 2,2 62,8 1,4 0,0 5670,1 ---
09.05.2021 18,8 28,0 8,1 54,8 1,9 0,0 6875,2 ---
10.05.2021 15,8 18,9 12,6 79,2 1,2 8,1 1224,2 ---
11.05.2021 13,0 14,6 11,4 94,2 0,8 6,2 1576,8 ---
12.05.2021 13,5 18,4 10,4 77,2 1,4 0,1 4189,8 ---
13.05.2021 12,7 19,2 6,9 75,2 1,2 0,0 5422,8 ---
14.05.2021 12,5 17,7 6,9 71,5 1,2 0,8 5225,3 ---
15.05.2021 11,0 14,2 8,2 81,5 1,7 2,8 2766,9 ---
16.05.2021 11,2 17,5 6,9 83,7 1,5 7,7 4410,5 ---
17.05.2021 10,9 15,6 7,8 87,4 1,5 5,5 3616,1 ---
18.05.2021 10,7 14,8 7,2 83,4 1,6 4,7 4970,7 ---
19.05.2021 11,4 16,9 6,8 77,7 1,6 2,3 6646,7 ---
20.05.2021 12,6 17,3 7,6 72,7 1,3 0,0 5372,1 ---
21.05.2021 13,0 16,8 8,7 67,7 2,3 4,1 4353,1 ---
22.05.2021 11,3 16,0 7,9 75,3 2,6 1,2 3777,2 ---
23.05.2021 11,4 16,5 6,3 71,7 1,9 0,1 4949,0 ---
24.05.2021 11,9 19,1 7,1 74,9 1,5 1,2 4645,6 ---
25.05.2021 9,4 13,9 7,7 83,6 2,3 5,5 2654,0 ---
26.05.2021 9,8 13,5 6,0 90,2 1,3 8,4 2746,9 ---
27.05.2021 10,7 14,2 6,1 84,2 2,2 1,2 3337,9 ---
28.05.2021 13,4 18,6 8,0 68,8 1,2 0,0 5582,2 ---
29.05.2021 15,4 21,5 8,0 59,1 1,3 0,0 7377,4 ---
30.05.2021 16,1 21,3 9,2 57,9 1,6 0,0 7708,4 ---
31.05.2021 17,3 22,7 10,5 51,2 1,5 0,0 8507,5 ---
01.06.2021 18,9 25,0 12,0 48,3 1,5 0,0 8524,3 ---
02.06.2021 20,4 27,6 10,8 51,6 1,1 0,0 8382,4 ---
03.06.2021 20,5 27,4 15,0 70,8 0,9 0,0 5588,1 ---
04.06.2021 20,6 28,8 15,5 79,0 1,3 16,4 5916,8 ---
05.06.2021 18,2 23,3 14,3 88,4 0,8 1,1 3613,2 ---
06.06.2021 16,5 18,6 14,8 85,4 3,2 0,0 5732,5 ---
07.06.2021 17,5 20,3 16,0 82,5 1,5 1,9 2679,1 ---
08.06.2021 19,7 24,3 15,4 75,1 1,2 0,0 4674,6 ---
09.06.2021 21,6 26,5 15,2 66,9 1,1 0,0 6315,9 ---
10.06.2021 22,5 27,6 16,1 57,9 1,2 0,0 7285,7 ---
11.06.2021 22,7 29,0 14,5 59,5 1,1 0,0 7249,7 ---
12.06.2021 20,9 25,4 15,8 65,2 1,6 0,0 6262,7 ---
13.06.2021 18,4 24,4 10,8 58,3 1,3 0,0 8546,7 ---
14.06.2021 20,7 27,6 13,9 54,6 1,1 0,0 8619,4 ---
15.06.2021 22,7 29,6 14,0 61,3 0,9 0,0 6466,7 ---
16.06.2021 25,0 31,8 17,8 60,9 1,1 0,0 7856,2 ---
17.06.2021 26,8 32,8 19,7 57,9 1,1 0,0 7821,5 ---
18.06.2021 27,4 33,3 19,6 61,2 0,9 0,0 6612,4 ---
19.06.2021 26,8 32,3 20,0 60,3 0,9 0,0 7878,8 ---
20.06.2021 24,4 28,6 18,8 67,3 1,3 3,2 6558,9 ---
21.06.2021 20,3 26,2 16,4 76,8 2,3 0,1 6041,7 ---
22.06.2021 16,4 18,5 14,0 84,4 1,4 1,9 2639,4 ---
23.06.2021 19,7 23,9 14,6 76,7 1,3 0,0 5840,8 ---
24.06.2021 17,4 19,6 16,3 90,6 0,8 15,5 1731,9 ---
25.06.2021 17,9 22,1 13,8 79,2 1,0 1,7 3932,0 ---
26.06.2021 19,7 26,4 12,4 68,4 0,9 0,1 7898,0 ---
27.06.2021 22,4 27,5 18,2 66,5 1,0 0,0 5301,7 ---
28.06.2021 23,2 29,2 17,1 68,6 0,9 0,0 6771,7 ---
29.06.2021 19,0 26,0 14,3 84,2 1,0 11,2 3958,8 ---
30.06.2021 15,6 19,9 12,6 88,2 1,1 0,6 2751,1 ---
01.07.2021 15,4 17,7 13,7 82,1 1,3 0,0 2125,8 ---
02.07.2021 18,2 24,2 11,8 71,2 1,1 0,0 6194,8 ---
03.07.2021 20,7 27,4 13,2 68,5 0,8 0,0 7366,3 ---
04.07.2021 18,8 23,2 14,6 83,6 0,8 7,1 3849,0 ---
05.07.2021 17,6 21,7 13,8 91,7 0,8 7,8 3221,8 ---
06.07.2021 17,6 20,0 14,9 88,5 1,2 7,6 1864,8 ---
07.07.2021 18,9 24,8 13,4 75,8 1,0 0,0 6708,2 ---
08.07.2021 18,1 23,5 14,4 81,4 1,3 0,1 3493,2 ---
09.07.2021 18,4 22,9 15,3 79,5 1,2 0,3 3073,7 ---
10.07.2021 19,5 25,7 13,3 77,3 0,9 7,2 6237,7 ---
11.07.2021 18,5 24,1 15,4 81,8 0,9 0,1 4550,3 ---
12.07.2021 20,5 25,8 14,3 76,3 1,0 1,1 4773,8 ---
13.07.2021 18,2 21,5 15,7 97,0 0,7 27,1 1315,0 ---
14.07.2021 16,2 17,3 15,0 95,9 0,8 6,8 814,5 ---
15.07.2021 19,0 24,9 15,5 85,1 0,7 4,6 5248,2 ---
16.07.2021 18,9 21,8 15,9 86,5 2,7 5,6 6038,8 ---
17.07.2021 20,6 25,9 16,0 79,0 1,6 0,0 6326,8 ---
18.07.2021 22,0 28,0 14,4 67,6 1,6 0,0 7996,9 ---
19.07.2021 20,8 25,3 16,0 67,7 1,6 0,0 7172,1 ---
20.07.2021 18,9 25,1 12,5 68,7 1,0 0,0 6748,6 ---
21.07.2021 19,8 25,9 13,4 61,5 1,4 0,0 7771,0 ---
22.07.2021 20,4 26,4 13,7 64,7 1,0 0,0 6655,6 ---
23.07.2021 21,2 27,8 13,7 65,5 0,9 0,0 6844,0 ---
24.07.2021 20,1 23,2 16,5 77,1 0,9 4,6 3754,3 ---
25.07.2021 20,4 27,4 15,7 80,6 0,8 0,5 6191,8 ---
26.07.2021 20,8 26,6 14,8 75,4 1,2 0,1 6866,9 ---
27.07.2021 18,9 25,1 14,6 81,0 1,2 2,0 4542,3 ---
28.07.2021 18,5 23,8 14,0 81,2 1,2 0,2 3936,7 ---
29.07.2021 18,5 22,7 13,6 69,4 1,5 0,0 5789,8 ---
30.07.2021 19,8 27,1 11,7 66,0 1,4 0,0 7374,5 ---
31.07.2021 18,4 22,9 12,5 65,7 1,5 0,0 5332,3 ---
01.08.2021 18,4 23,8 14,2 68,2 1,3 0,0 5683,7 ---
02.08.2021 16,2 21,9 12,0 83,6 0,9 4,2 4707,0 ---
03.08.2021 15,7 21,6 12,7 88,8 0,9 6,4 3166,5 ---
04.08.2021 16,8 21,8 12,1 83,2 0,7 0,6 4132,5 ---
05.08.2021 18,6 23,5 13,2 79,2 0,7 0,0 5562,8 ---
06.08.2021 17,6 22,2 13,8 83,2 1,4 4,5 3516,7 ---
07.08.2021 16,9 21,6 12,9 86,3 0,8 1,6 2917,9 ---
08.08.2021 15,8 19,9 12,3 84,4 1,2 2,1 3824,2 ---
09.08.2021 16,7 22,7 10,9 75,7 1,0 0,1 4537,4 ---
10.08.2021 18,3 24,8 12,5 75,1 1,1 0,0 4924,3 ---
11.08.2021 20,7 27,5 13,8 72,9 1,0 0,0 6599,4 ---
12.08.2021 22,0 29,1 14,4 71,2 0,7 0,0 5478,4 ---
13.08.2021 23,3 30,4 16,7 71,7 1,2 0,0 4998,4 ---
14.08.2021 23,0 30,9 15,7 66,9 1,1 0,0 6672,3 ---
15.08.2021 22,3 29,5 14,6 62,7 0,9 0,0 6160,6 ---
16.08.2021 17,5 21,8 10,8 73,0 2,2 0,9 3403,9 ---
17.08.2021 13,7 18,8 9,4 82,8 1,0 3,1 3052,8 ---
18.08.2021 17,1 21,6 13,5 82,1 1,1 0,1 3053,7 ---
19.08.2021 18,2 22,2 15,4 84,2 0,9 1,7 2564,7 ---
20.08.2021 18,9 25,5 13,4 75,4 1,1 0,0 5461,2 ---
21.08.2021 20,8 27,7 14,1 72,5 0,7 1,5 5746,6 ---
22.08.2021 18,5 23,6 14,7 85,0 1,1 1,2 4115,6 ---
23.08.2021 17,7 22,8 13,3 81,0 1,1 0,0 3444,7 ---
24.08.2021 17,3 21,4 13,8 66,1 1,7 0,0 4691,0 ---
25.08.2021 18,5 24,2 13,5 63,5 1,1 0,0 5944,7 ---
26.08.2021 16,5 19,4 13,6 72,3 1,7 0,0 4753,5 ---
27.08.2021 14,8 18,4 10,8 80,3 1,8 1,8 3018,9 ---
28.08.2021 15,2 18,7 12,4 84,2 0,8 0,3 2366,5 ---
29.08.2021 15,3 16,9 14,1 88,2 1,3 1,0 1525,0 ---
30.08.2021 17,5 21,1 15,4 78,1 1,4 0,0 2673,5 ---
31.08.2021 16,8 20,8 12,6 75,2 1,4 0,0 3491,6 ---
01.09.2021 16,4 22,9 11,9 75,3 1,4 0,0 3971,9 ---
02.09.2021 17,7 24,9 10,6 71,5 1,2 0,0 5833,6 ---
03.09.2021 19,4 26,6 11,7 65,0 1,1 0,0 5793,7 ---
04.09.2021 19,4 27,4 11,3 67,2 0,9 0,0 5709,0 ---
05.09.2021 20,4 28,2 13,6 67,5 0,9 0,0 5528,9 ---
06.09.2021 21,1 29,0 13,3 66,4 0,9 0,0 5041,5 ---
07.09.2021 19,9 27,4 13,9 67,8 0,8 0,0 4572,4 ---
08.09.2021 21,1 28,1 14,4 63,1 1,2 0,0 5319,9 ---
09.09.2021 20,5 26,3 13,8 73,2 0,9 0,0 4065,8 ---
10.09.2021 19,3 23,2 16,6 87,6 0,7 15,2 2471,0 ---
11.09.2021 18,4 24,1 14,2 86,9 0,7 4,7 3113,5 ---
12.09.2021 17,4 24,1 11,6 76,5 0,8 0,0 4614,8 ---
13.09.2021 17,4 24,8 11,1 76,6 0,9 0,0 4722,9 ---
14.09.2021 19,0 25,4 12,5 79,7 0,6 0,0 3547,5 ---
15.09.2021 18,9 21,9 17,0 92,9 0,9 8,4 1367,8 ---
16.09.2021 16,5 20,1 12,7 79,9 1,2 0,0 2527,6 ---
17.09.2021 15,1 21,0 11,2 84,7 0,6 0,0 2601,5 ---
18.09.2021 16,0 23,3 9,5 80,5 0,7 0,0 4075,8 ---
19.09.2021 15,3 20,4 12,3 77,1 1,2 0,0 3684,4 ---
20.09.2021 13,8 15,9 12,2 75,0 0,6 0,0 1768,2 ---
21.09.2021 13,7 18,6 9,6 63,5 1,3 0,0 4155,3 ---
22.09.2021 13,1 21,1 6,9 77,7 0,6 0,0 4120,8 ---
23.09.2021 14,9 25,2 7,0 75,7 0,9 0,0 4594,3 ---
24.09.2021 15,9 21,5 11,2 79,2 1,1 0,0 3038,3 ---
25.09.2021 16,6 25,1 9,9 75,7 0,8 0,2 4459,6 ---
26.09.2021 16,3 19,9 13,0 91,0 0,5 7,3 1331,9 ---
27.09.2021 16,0 20,8 13,0 92,9 1,0 1,9 1522,9 ---
28.09.2021 13,3 19,2 9,4 82,4 0,9 0,0 3348,3 ---
29.09.2021 11,8 16,6 7,5 82,2 1,1 2,3 2200,2 ---
30.09.2021 10,3 16,1 4,8 79,1 0,7 0,0 3430,0 ---
01.10.2021 12,1 20,2 6,2 74,4 0,8 0,0 3912,5 ---
02.10.2021 15,3 20,0 11,4 75,6 0,9 0,0 2071,9 ---
03.10.2021 17,3 20,7 12,5 74,8 1,3 0,0 804,8 ---
04.10.2021 13,2 17,4 11,3 85,5 0,7 0,0 1779,5 ---
05.10.2021 12,6 17,2 9,2 90,3 0,8 6,3 1452,2 ---
06.10.2021 11,1 13,2 8,7 86,8 1,1 0,7 1228,0 ---
07.10.2021 11,7 17,7 9,1 88,2 0,8 1,1 2309,0 ---
08.10.2021 12,4 18,3 6,6 80,8 0,9 0,0 2800,0 ---
09.10.2021 12,6 19,0 7,9 69,4 1,1 0,0 3749,1 ---
10.10.2021 9,3 16,7 3,3 76,0 0,8 0,0 3282,4 ---
11.10.2021 8,7 15,3 3,0 86,4 0,9 0,0 1668,2 ---
12.10.2021 9,6 11,9 5,5 91,4 0,8 8,7 1001,1 ---
13.10.2021 8,3 13,3 4,9 87,1 0,9 0,2 1749,2 ---
14.10.2021 10,3 16,7 6,9 86,7 0,7 0,0 1899,8 ---
15.10.2021 9,0 16,2 4,6 90,0 0,6 0,0 1649,6 ---
16.10.2021 8,6 15,9 2,4 82,0 0,8 0,0 3009,6 ---